Airfield :
LOGIN :

Register | Disclaimer

   EN    FR    IT 

 










Legend :    VFR   Marginal VFR   IFR   Intensive IFR   Very Intensive IFR
Visi :
Ceiling :
>= 8 km
>= 3000ft
5 to 8 km
1000 to 3000 ft
1500m to 5 km
500 to 1000 ft
800 to 1500m
200 to 500 ft
< 800m
< 200 ft
Symbols :   Thunderstorms  Fog  Heavy snow  Heavy precipitations  Wind > 20 kt
SIGMETs :     Misc.  Thunderstorms  Icing  Turbulence  Mountain Waves  Volcanic Ashes







- Airport Elevation : 302 ft
- IATA code : CGN


EDDK - Cologne Bonn

CURRENT METAR :
  • 191420Z 26013KT 9999 SCT042 11/01 Q1020 NOSIG

EXPIRED METARs :
  • 191350Z 27015KT 9999 SCT042 12/01 Q1020 NOSIG
  • 191320Z 29012KT 9999 SCT042 11/01 Q1020 NOSIG
  • 191250Z 24015KT 9999 SCT040 12/01 Q1019 NOSIG
  • 191220Z 26013KT 230V290 9999 FEW042 11/01 Q1019 NOSIG
  • 191150Z 26014KT 9999 FEW038 11/01 Q1019 NOSIG

TAF TAF EDDK
Valid from the 19 at 12:00 until the 20 at 18:00 UTC


191100Z 1912/2018 25012KT 9999 BKN025
BECMG 1916/1919 23005KT
BECMG 1921/1924 17004KT
No reported NOTAMs for that airfield.



MET'MAP, your aeronautical weather chart ! - Copyright ORBIFLY December 2007 - Disclaimer

ORBIFLY MET'MAP TEAM :

Programming & Development : Alexandra Zaïnal
Concept & Development : Baudouin d'Aumeries
Co-Development & Prog : Marc-Olivier Méhu
Technical & hardware support : Manuel Goepfert

Contact : metmap@orbifly.com




SOURCES & CREDITS :

   NOAA